Nearby METAR Reports

 

KVSF - Springfield, Vermont, USA
Distance from station: WNW 17mi, 27km
Updated: Sun, Oct-21-2018 9:54am EDT
Light snow, Overcast
Light snow, Overcast
 Wind from varies
Wind: varies 3 mph , 6 km/h, Gust: 17 mph , 28 km/h
Temperature: 37°F , 3°C
Dew Point: 25°F , -4°C
Humidity: 60%
Barometer: 29.85 inHg , 1010.8 hPa
Summary: Light Snow
Clouds: Overcast
Visibility: 9 miles , 14 km
Cloud details: Overcast 3800 ft
2018/10/21 13:54 KVSF 211354Z AUTO VRB03G15KT 9SM -SN OVC038 03/M04 A2985 RMK AO2 SNB33 SLP114 P0000 T00331044
KLEB - Lebanon, New Hampshire, USA
Distance from station: NNW 24mi, 39km
Updated: Sun, Oct-21-2018 10:33am EDT
Overcast
Overcast
 Wind from NNW
Wind: NNW 14 mph , 22 km/h, Gust: 20 mph , 31 km/h
Temperature: 39°F , 4°C
Wind Chill: 31°F , -1°C
Dew Point: 25°F , -4°C
Humidity: 56%
Barometer: 29.85 inHg , 1010.8 hPa
Clouds: Overcast
Visibility: 10 miles , 16 km
Cloud details: Overcast 3000 ft
2018/10/21 14:33 KLEB 211433Z 33012G17KT 10SM OVC030 04/M04 A2985 RMK AO2 T00391044
 
KEEN - Keene/Dillant, New Hampshire, USA
Distance from station: S 28mi, 45km
Updated: Sun, Oct-21-2018 9:56am EDT
Overcast
Overcast
 Wind from N
Wind: N 13 mph , 20 km/h
Temperature: 39°F , 4°C
Wind Chill: 31°F , -1°C
Dew Point: 25°F , -4°C
Humidity: 56%
Barometer: 29.83 inHg , 1010.2 hPa
Clouds: Overcast
Visibility: 10 miles , 16 km
Cloud details: Overcast 4000 ft
2018/10/21 13:56 KEEN 211356Z AUTO 35011KT 10SM OVC040 04/M04 A2983 RMK AO2 SLP123 T00441039 $
KAFN - Jaffrey, New Hampshire, USA
Distance from station: SSE 35mi, 57km
Updated: Sun, Oct-21-2018 9:52am EDT
Mostly cloudy
Mostly cloudy
 Wind from NNW
Wind: NNW 8 mph , 13 km/h, Gust: 23 mph , 37 km/h
Temperature: 39°F , 4°C
Wind Chill: 33°F , 1°C
Dew Point: 27°F , -3°C
Humidity: 61%
Barometer: 29.80 inHg , 1009.1 hPa
Clouds: Mostly cloudy
Visibility: 10 miles , 16 km
Cloud details: Mostly cloudy 3900 ft
2018/10/21 13:52 KAFN 211352Z AUTO 33007G20KT 290V030 10SM BKN039 04/M03 A2980 RMK AO2 SLP102 T00391033
 
KCON - Concord, New Hampshire, USA
Distance from station: E 35mi, 57km
Updated: Sun, Oct-21-2018 9:51am EDT
Overcast
Overcast
 Wind from NW
Wind: NW 17 mph , 28 km/h, Gust: 26 mph , 43 km/h
Temperature: 39°F , 4°C
Wind Chill: 30°F , -1°C
Dew Point: 27°F , -3°C
Humidity: 61%
Barometer: 29.80 inHg , 1009.1 hPa
Clouds: Overcast
Visibility: 10 miles , 16 km
Cloud details: Overcast 3500 ft
2018/10/21 13:51 KCON 211351Z AUTO 31015G23KT 10SM OVC035 04/M03 A2980 RMK AO2 SLP094 T00441028
K1P1 - Plymouth, New Hampshire, USA
Distance from station: NNE 41mi, 66km
Updated: Sun, Oct-21-2018 10:35am EDT
Overcast
Overcast
 Wind from NNW
Wind: NNW 10 mph , 17 km/h, Gust: 16 mph , 26 km/h
Temperature: 39°F , 4°C
Wind Chill: 32°F , 0°C
Dew Point: 25°F , -4°C
Humidity: 56%
Barometer: 29.82 inHg , 1009.8 hPa
Clouds: Overcast
Visibility: 10 miles , 16 km
Cloud details: Overcast 4600 ft
2018/10/21 14:35 K1P1 211435Z AUTO 33009G14KT 10SM OVC046 04/M04 A2982 RMK AO2 T00371045
 
KRUT - Rutland State, Vermont, USA
Distance from station: WNW 41mi, 66km
Updated: Sun, Oct-21-2018 9:56am EDT
Overcast
Overcast
 Wind from NNW
Wind: NNW 15 mph , 24 km/h
Temperature: 36°F , 2°C
Wind Chill: 27°F , -3°C
Dew Point: 25°F , -4°C
Humidity: 65%
Barometer: 29.86 inHg , 1011.2 hPa
Clouds: Overcast
Visibility: 10 miles , 16 km
Cloud details: Overcast 3200 ft
2018/10/21 13:56 KRUT 211356Z AUTO 34013KT 10SM OVC032 02/M04 A2986 RMK AO2 SLP135 T00221039 FZRANO $
KLCI - Laconia Muni, New Hampshire, USA
Distance from station: ENE 44mi, 70km
Updated: Sun, Oct-21-2018 9:56am EDT
Overcast
Overcast
 Wind from WNW
Wind: WNW 12 mph , 19 km/h, Gust: 21 mph , 33 km/h
Temperature: 37°F , 3°C
Wind Chill: 29°F , -2°C
Dew Point: 25°F , -4°C
Humidity: 60%
Barometer: 29.80 inHg , 1009.1 hPa
Clouds: Overcast
Visibility: 10 miles , 16 km
Cloud details: Overcast 3800 ft
2018/10/21 13:56 KLCI 211356Z AUTO 30010G18KT 10SM OVC038 03/M04 A2980 RMK AO2 SLP109 T00331044 $
 
KMHT - Manchester, New Hampshire, USA
Distance from station: ESE 46mi, 73km
Updated: Sun, Oct-21-2018 9:53am EDT
Overcast
Overcast
 Wind from NW
Wind: NW 20 mph , 31 km/h, Gust: 29 mph , 46 km/h
Temperature: 43°F , 6°C
Wind Chill: 34°F , 1°C
Dew Point: 27°F , -3°C
Humidity: 53%
Barometer: 29.78 inHg , 1008.5 hPa
Clouds: Overcast
Visibility: 10 miles , 16 km
Cloud details: Overcast 3800 ft
2018/10/21 13:53 KMHT 211353Z 31017G25KT 10SM OVC038 06/M03 A2978 RMK AO2 SLP100 T00561033
KASH - Nashua/Boire Fld, New Hampshire, USA
Distance from station: SE 49mi, 79km
Updated: Sun, Oct-21-2018 9:56am EDT
Few Clouds
Few Clouds
 Wind from NNW
Wind: NNW 20 mph , 31 km/h, Gust: 31 mph , 50 km/h
Temperature: 43°F , 6°C
Wind Chill: 34°F , 1°C
Dew Point: 27°F , -3°C
Humidity: 53%
Barometer: 29.80 inHg , 1009.1 hPa
Clouds: Few Clouds
Visibility: 10 miles , 16 km
Cloud details: Few Clouds 12000 ft
2018/10/21 13:56 KASH 211356Z 33017G27KT 10SM FEW120 06/M03 A2980 RMK AO2 PK WND 32027/1355 SLP103 T00561033
 
KORE - Orange, Massachusetts, USA
Distance from station: S 50mi, 81km
Updated: Sun, Oct-21-2018 9:52am EDT
Overcast
Overcast
 Wind from NNW
Wind: NNW 21 mph , 33 km/h, Gust: 30 mph , 48 km/h
Temperature: 43°F , 6°C
Wind Chill: 34°F , 1°C
Dew Point: 25°F , -4°C
Humidity: 49%
Barometer: 29.83 inHg , 1010.2 hPa
Clouds: Overcast
Visibility: 10 miles , 16 km
Cloud details: Overcast 4100 ft
2018/10/21 13:52 KORE 211352Z AUTO 33018G26KT 10SM OVC041 06/M04 A2983 RMK AO2 PK WND 36027/1341 SLP105 T00561039